»·PEaware :: FDX4214 KOAK-KPHX

FDX4214 :: KOAK-KPHX

FLIGHT INFORMATION

Flight Status: Arrived
Operator:
Federal Express
More flights by this operator :: More flights under this callsign
Pilot: Anonymous 12254 (12254)
Aircraft: BOEING 727-200
(B722)
More flights by this aircraft type
Origin: KOAK Metro Oakland Intl
United States
Destination: KPHX Phoenix Sky Harbor Intl
United States
More flights between these airports :: More routes between these airports
Route: +CNDEL4 LOSHN BOILE BLH HYDRR1
File this flight plan on PilotEdge
Remarks:
Altitude:
(Current/Filed)
31,000ft
Speed:
(Current/Filed)
400kts
Departed: 20-Oct-20 11:02 AM
Arrived: 20-Oct-20 12:36 PM
Distance/Time
Traveled:
560nm/1:34
Distance/Time
To Go:
Arrived

Flight Plot

Page will automatically refresh every two minutes.

Flight plan parsing failed; only flown route is shown


Map Options




Map Legend


Flown Route
Filed Route
Departure Airport
Arrival Airport
Navaid (VOR, NDB)
Fix

Horizontal Profiles

Position Reports

Time Latitude Longitude Heading Altitude Ground
Speed
20-Oct-20 10:37 37.717899 -122.219179 311 15ft 0kts
20-Oct-20 10:38 37.717899 -122.219179 311 15ft 0kts
20-Oct-20 10:39 37.717899 -122.219179 311 15ft 0kts
20-Oct-20 10:40 37.717899 -122.219179 311 15ft 0kts
20-Oct-20 10:41 37.717899 -122.219179 311 15ft 0kts
20-Oct-20 10:41 37.717899 -122.219179 311 15ft 0kts
20-Oct-20 10:43 37.717899 -122.219179 311 15ft 0kts
20-Oct-20 10:43 37.717899 -122.219179 311 15ft 0kts
20-Oct-20 10:44 37.717899 -122.219179 311 15ft 0kts
20-Oct-20 10:45 37.717899 -122.219179 311 15ft 0kts
20-Oct-20 10:46 37.717899 -122.219179 311 15ft 0kts
20-Oct-20 10:47 37.717899 -122.219179 311 15ft 0kts
20-Oct-20 10:48 37.717899 -122.219179 311 15ft 0kts
20-Oct-20 10:49 37.717899 -122.219179 311 15ft 0kts
20-Oct-20 10:50 37.717899 -122.219179 311 15ft 0kts
20-Oct-20 10:51 37.717813 -122.219057 311 15ft 3kts
20-Oct-20 10:52 37.717292 -122.218642 245 15ft 10kts
20-Oct-20 10:53 37.715869 -122.220487 179 15ft 4kts
20-Oct-20 10:54 37.715496 -122.220215 136 15ft 0kts
20-Oct-20 10:55 37.715490 -122.220208 136 15ft 0kts
20-Oct-20 10:56 37.713891 -122.220831 227 15ft 12kts
20-Oct-20 10:57 37.711183 -122.224041 211 15ft 13kts
20-Oct-20 10:58 37.708237 -122.220614 130 15ft 16kts
20-Oct-20 10:59 37.704878 -122.215570 130 15ft 20kts
20-Oct-20 11:00 37.702675 -122.213525 169 15ft 0kts
20-Oct-20 11:01 37.702489 -122.215756 310 15ft 42kts
20-Oct-20 11:02 37.730134 -122.255837 309 677ft 219kts
20-Oct-20 11:03 37.775511 -122.325713 310 1643ft 251kts
20-Oct-20 11:04 37.792546 -122.395711 236 3174ft 183kts
20-Oct-20 11:05 37.743749 -122.405966 185 5052ft 228kts
20-Oct-20 11:06 37.671127 -122.427328 192 5489ft 281kts
20-Oct-20 11:07 37.595354 -122.447473 190 6778ft 275kts
20-Oct-20 11:08 37.523008 -122.466182 190 8311ft 255kts
20-Oct-20 11:09 37.466390 -122.438099 130 9825ft 211kts
20-Oct-20 11:10 37.431925 -122.385664 126 11360ft 197kts
20-Oct-20 11:11 37.392485 -122.322525 127 13111ft 266kts
20-Oct-20 11:12 37.339194 -122.240060 128 14802ft 341kts
20-Oct-20 11:13 37.274015 -122.139719 128 16637ft 398kts
20-Oct-20 11:14 37.200152 -122.025937 128 18453ft 438kts
20-Oct-20 11:15 37.123318 -121.908193 128 19992ft 433kts
20-Oct-20 11:16 37.047632 -121.792816 128 21494ft 426kts
20-Oct-20 11:17 36.973267 -121.679774 127 22993ft 416kts
20-Oct-20 11:18 36.900990 -121.569790 126 24489ft 403kts
20-Oct-20 11:19 36.831526 -121.464065 126 26034ft 382kts
20-Oct-20 11:20 36.766847 -121.366579 126 27590ft 347kts
20-Oct-20 11:21 36.709046 -121.279732 125 29129ft 309kts
20-Oct-20 11:22 36.655062 -121.198174 125 30481ft 306kts
20-Oct-20 11:23 36.600097 -121.115006 126 30857ft 318kts
20-Oct-20 11:24 36.541949 -121.028046 127 31002ft 337kts
20-Oct-20 11:25 36.479676 -120.935555 127 31026ft 361kts
20-Oct-20 11:26 36.413270 -120.836630 127 31057ft 385kts
20-Oct-20 11:27 36.342990 -120.731649 127 31084ft 407kts
20-Oct-20 11:28 36.268997 -120.621396 127 31116ft 424kts
20-Oct-20 11:29 36.192201 -120.507520 127 31204ft 439kts
20-Oct-20 11:30 36.112836 -120.389987 127 31276ft 449kts
20-Oct-20 11:31 36.031841 -120.270695 128 31321ft 457kts
20-Oct-20 11:32 35.949709 -120.149910 128 31310ft 464kts
20-Oct-20 11:33 35.865820 -120.027107 128 31261ft 472kts
20-Oct-20 11:34 35.779816 -119.903749 128 31216ft 478kts
20-Oct-20 11:35 35.692025 -119.779405 128 31159ft 484kts
20-Oct-20 11:36 35.603563 -119.654201 128 31126ft 488kts
20-Oct-20 11:37 35.514299 -119.528458 128 31073ft 491kts
20-Oct-20 11:38 35.424050 -119.401629 128 30998ft 495kts
20-Oct-20 11:39 35.333405 -119.274924 129 30891ft 496kts
20-Oct-20 11:40 35.242656 -119.148429 129 30886ft 495kts
20-Oct-20 11:41 35.152044 -119.022531 129 30892ft 494kts
20-Oct-20 11:42 35.062366 -118.897006 131 30952ft 488kts
20-Oct-20 11:43 34.972912 -118.773269 133 30929ft 485kts
20-Oct-20 11:44 34.883459 -118.649901 136 30790ft 490kts
20-Oct-20 11:45 34.790683 -118.527881 135 31106ft 490kts
20-Oct-20 11:46 34.700351 -118.403461 134 31196ft 496kts
20-Oct-20 11:47 34.608154 -118.277200 135 31243ft 501kts
20-Oct-20 11:48 34.515021 -118.151194 135 31273ft 505kts
20-Oct-20 11:49 34.425192 -118.019699 119 31156ft 516kts
20-Oct-20 11:50 34.381699 -117.852396 106 31167ft 522kts
20-Oct-20 11:51 34.340743 -117.682844 107 31102ft 527kts
20-Oct-20 11:52 34.298782 -117.511960 107 31069ft 532kts
20-Oct-20 11:53 34.256875 -117.339188 107 30996ft 536kts
20-Oct-20 11:54 34.214668 -117.166116 107 30919ft 538kts
20-Oct-20 11:55 34.172013 -116.992830 107 30981ft 536kts
20-Oct-20 11:56 34.129283 -116.821681 107 31030ft 527kts
20-Oct-20 11:57 34.087338 -116.653070 107 30974ft 520kts
20-Oct-20 11:58 34.045708 -116.486958 107 30943ft 515kts
20-Oct-20 11:59 34.003994 -116.322230 108 30928ft 510kts
20-Oct-20 12:00 33.962466 -116.159125 108 30919ft 507kts
20-Oct-20 12:01 33.921057 -115.997577 108 30920ft 505kts
20-Oct-20 12:02 33.879463 -115.836039 108 30910ft 503kts
20-Oct-20 12:03 33.839215 -115.680970 108 30886ft 499kts
20-Oct-20 12:04 33.798007 -115.522876 108 30627ft 491kts
20-Oct-20 12:05 33.757267 -115.367415 108 30226ft 482kts
20-Oct-20 12:06 33.717124 -115.215174 108 29726ft 475kts
20-Oct-20 12:07 33.677523 -115.064767 109 29262ft 467kts
20-Oct-20 12:08 33.637692 -114.917159 109 28781ft 460kts
20-Oct-20 12:09 33.598987 -114.772600 107 28252ft 451kts
20-Oct-20 12:10 33.569749 -114.628387 103 27701ft 439kts
20-Oct-20 12:11 33.543041 -114.487166 103 27155ft 429kts
20-Oct-20 12:12 33.515969 -114.349529 104 26512ft 419kts
20-Oct-20 12:13 33.489136 -114.214552 104 25813ft 412kts
20-Oct-20 12:14 33.462756 -114.081915 104 25110ft 408kts
20-Oct-20 12:16 33.436818 -113.952301 104 24931ft 390kts
20-Oct-20 12:17 33.411859 -113.828103 104 24370ft 380kts
20-Oct-20 12:18 33.387078 -113.705743 104 23265ft 375kts
20-Oct-20 12:19 33.362631 -113.585358 104 22234ft 369kts
20-Oct-20 12:20 33.338633 -113.467396 103 21321ft 362kts
20-Oct-20 12:21 33.317898 -113.350105 102 20414ft 356kts
20-Oct-20 12:22 33.298238 -113.234626 101 19516ft 352kts
20-Oct-20 12:23 33.281359 -113.119539 100 18618ft 350kts
20-Oct-20 12:24 33.274297 -113.002773 89 17459ft 354kts
20-Oct-20 12:25 33.277915 -112.884968 86 16287ft 354kts
20-Oct-20 12:26 33.295057 -112.770852 66 15089ft 350kts
20-Oct-20 12:27 33.337321 -112.666280 60 13619ft 349kts
20-Oct-20 12:28 33.380433 -112.562078 64 12012ft 348kts
20-Oct-20 12:29 33.417954 -112.456759 65 10029ft 322kts
20-Oct-20 12:30 33.428298 -112.357007 88 8104ft 302kts
20-Oct-20 12:31 33.428887 -112.255980 88 5892ft 299kts
20-Oct-20 12:31 33.429981 -112.177485 87 4221ft 245kts
20-Oct-20 12:33 33.429592 -112.097164 92 2244ft 176kts
20-Oct-20 12:34 33.428904 -112.043133 90 1438ft 157kts
20-Oct-20 12:34 33.428836 -112.006936 90 1125ft 82kts
20-Oct-20 12:36 33.429236 -112.004521 18 1126ft 0kts
20-Oct-20 12:36 33.430415 -112.003307 18 1127ft 12kts
20-Oct-20 12:37 33.431737 -112.003249 349 1127ft 4kts
20-Oct-20 12:38 33.432807 -112.004158 295 1129ft 7kts
20-Oct-20 12:39 33.432871 -112.007192 270 1132ft 9kts
20-Oct-20 12:40 33.432870 -112.011087 271 1131ft 14kts
20-Oct-20 12:41 33.432881 -112.017176 270 1124ft 22kts
20-Oct-20 12:42 33.432883 -112.024247 270 1121ft 15kts
20-Oct-20 12:43 33.434271 -112.025203 0 1120ft 0kts

Navigation Log

Ident Type
Flight plan parsing failed, navigation log unavailable